Time,TemperatureF,DewpointF,PressureIn,WindDirection,WindDirectionDegrees,WindSpeedMPH,WindSpeedGustMPH,Humidity,HourlyPrecipIn,Conditions,Clouds,dailyrainin,SolarRadiationWatts/m^2,SoftwareType,DateUTC
2013-01-24 00:06:00,67.0,60.0,30.24,NE,40,2.0,-999.0,79,-99.99,,,0.00,0,weatherlink.com 1.10,2013-01-24 05:06:00,
2013-01-24 00:21:00,66.9,60.0,30.24,NNE,23,4.0,-999.0,78,-99.99,,,0.00,0,weatherlink.com 1.10,2013-01-24 05:21:00,
2013-01-24 00:36:00,66.9,60.0,30.24,NE,35,4.0,-999.0,79,-99.99,,,0.00,0,weatherlink.com 1.10,2013-01-24 05:36:00,
2013-01-24 00:51:00,66.7,60.0,30.24,NNE,15,6.0,-999.0,80,-99.99,,,0.00,0,weatherlink.com 1.10,2013-01-24 05:51:00,
2013-01-24 01:06:00,66.4,60.0,30.24,North,355,8.0,-999.0,80,-99.99,,,0.00,0,weatherlink.com 1.10,2013-01-24 06:06:00,
2013-01-24 01:21:00,65.4,59.0,30.23,NNE,24,8.0,-999.0,81,-99.99,,,0.00,0,weatherlink.com 1.10,2013-01-24 06:21:00,
2013-01-24 01:36:00,64.7,59.0,30.24,NNE,22,11.0,-999.0,81,-99.99,,,0.00,0,weatherlink.com 1.10,2013-01-24 06:36:00,
2013-01-24 01:51:00,64.6,59.0,30.23,NNW,331,10.0,-999.0,82,-99.99,,,0.00,0,weatherlink.com 1.10,2013-01-24 06:51:00,
2013-01-24 02:06:00,64.4,59.0,30.23,NNE,13,7.0,-999.0,83,-99.99,,,0.00,0,weatherlink.com 1.10,2013-01-24 07:06:00,
2013-01-24 02:21:00,64.4,60.0,30.22,NNE,13,6.0,-999.0,84,-99.99,,,0.00,0,weatherlink.com 1.10,2013-01-24 07:21:00,
2013-01-24 02:36:00,64.3,59.0,30.22,NNE,26,10.0,-999.0,84,-99.99,,,0.00,0,weatherlink.com 1.10,2013-01-24 07:36:00,
2013-01-24 02:53:00,64.3,60.0,30.21,NNW,332,8.0,-999.0,86,-99.99,,,0.00,0,weatherlink.com 1.10,2013-01-24 07:53:00,
2013-01-24 03:07:00,64.5,60.0,30.21,NNE,30,6.0,-999.0,86,-99.99,,,0.00,0,weatherlink.com 1.10,2013-01-24 08:07:00,
2013-01-24 03:22:00,64.4,60.0,30.21,NNE,15,7.0,-999.0,86,-99.99,,,0.00,0,weatherlink.com 1.10,2013-01-24 08:22:00,
2013-01-24 03:37:00,64.3,60.0,30.21,NNE,20,9.0,-999.0,87,-99.99,,,0.00,0,weatherlink.com 1.10,2013-01-24 08:37:00,
2013-01-24 03:52:00,64.2,60.0,30.20,NE,40,6.0,-999.0,87,-99.99,,,0.00,0,weatherlink.com 1.10,2013-01-24 08:52:00,
2013-01-24 04:07:00,63.6,60.0,30.21,NNE,26,10.0,-999.0,88,-99.99,,,0.00,0,weatherlink.com 1.10,2013-01-24 09:07:00,
2013-01-24 04:22:00,63.6,60.0,30.21,NNW,338,7.0,-999.0,88,-99.99,,,0.00,0,weatherlink.com 1.10,2013-01-24 09:22:00,
2013-01-24 04:37:00,63.5,60.0,30.21,NNE,15,9.0,-999.0,88,-99.99,,,0.00,0,weatherlink.com 1.10,2013-01-24 09:37:00,
2013-01-24 04:52:00,63.0,59.0,30.21,NNE,22,9.0,-999.0,88,-99.99,,,0.00,0,weatherlink.com 1.10,2013-01-24 09:52:00,
2013-01-24 05:07:00,62.9,59.0,30.21,East,85,6.0,-999.0,88,-99.99,,,0.00,0,weatherlink.com 1.10,2013-01-24 10:07:00,
2013-01-24 05:22:00,62.8,59.0,30.21,NNE,17,7.0,-999.0,88,-99.99,,,0.00,0,weatherlink.com 1.10,2013-01-24 10:22:00,
2013-01-24 05:37:00,62.2,59.0,30.21,NNE,26,9.0,-999.0,88,-99.99,,,0.00,0,weatherlink.com 1.10,2013-01-24 10:37:00,
2013-01-24 05:52:00,62.9,59.0,30.22,NNE,16,7.0,-999.0,87,-99.99,,,0.00,0,weatherlink.com 1.10,2013-01-24 10:52:00,
2013-01-24 06:07:00,63.0,59.0,30.22,NNW,342,7.0,-999.0,86,-99.99,,,0.00,0,weatherlink.com 1.10,2013-01-24 11:07:00,
2013-01-24 06:22:00,62.8,59.0,30.22,North,9,6.0,-999.0,87,-99.99,,,0.00,0,weatherlink.com 1.10,2013-01-24 11:22:00,
2013-01-24 06:37:00,62.7,59.0,30.22,North,360,6.0,-999.0,87,-99.99,,,0.00,0,weatherlink.com 1.10,2013-01-24 11:37:00,
2013-01-24 06:52:00,62.6,59.0,30.23,North,5,5.0,-999.0,87,-99.99,,,0.00,0,weatherlink.com 1.10,2013-01-24 11:52:00,
2013-01-24 07:07:00,62.5,59.0,30.23,North,355,5.0,-999.0,87,-99.99,,,0.00,5,weatherlink.com 1.10,2013-01-24 12:07:00,
2013-01-24 07:22:00,62.3,58.0,30.24,NNW,342,8.0,-999.0,87,-99.99,,,0.00,12,weatherlink.com 1.10,2013-01-24 12:22:00,
2013-01-24 07:37:00,62.8,59.0,30.25,NNW,340,6.0,-999.0,88,-99.99,,,0.00,21,weatherlink.com 1.10,2013-01-24 12:37:00,
2013-01-24 07:52:00,63.4,59.0,30.25,North,360,6.0,-999.0,86,-99.99,,,0.00,26,weatherlink.com 1.10,2013-01-24 12:52:00,
2013-01-24 08:07:00,64.2,60.0,30.26,North,9,7.0,-999.0,86,-99.99,,,0.00,30,weatherlink.com 1.10,2013-01-24 13:07:00,
2013-01-24 08:22:00,64.4,60.0,30.27,NNE,20,9.0,-999.0,84,-99.99,,,0.00,86,weatherlink.com 1.10,2013-01-24 13:22:00,
2013-01-24 08:37:00,64.4,59.0,30.27,North,9,8.0,-999.0,83,-99.99,,,0.00,209,weatherlink.com 1.10,2013-01-24 13:37:00,
2013-01-24 08:52:00,65.0,59.0,30.28,North,355,10.0,-999.0,82,-99.99,,,0.00,302,weatherlink.com 1.10,2013-01-24 13:52:00,
2013-01-24 09:07:00,65.9,60.0,30.29,North,355,7.0,-999.0,81,-99.99,,,0.00,355,weatherlink.com 1.10,2013-01-24 14:07:00,
2013-01-24 09:22:00,66.6,60.0,30.29,NE,37,6.0,-999.0,79,-99.99,,,0.00,399,weatherlink.com 1.10,2013-01-24 14:22:00,
2013-01-24 09:37:00,67.6,61.0,30.29,North,351,5.0,-999.0,78,-99.99,,,0.00,443,weatherlink.com 1.10,2013-01-24 14:37:00,
2013-01-24 09:53:00,68.5,61.0,30.30,North,11,4.0,-999.0,76,-99.99,,,0.00,487,weatherlink.com 1.10,2013-01-24 14:53:00,
2013-01-24 10:08:00,69.8,61.0,30.29,NE,35,7.0,-999.0,74,-99.99,,,0.00,531,weatherlink.com 1.10,2013-01-24 15:08:00,
2013-01-24 10:23:00,70.3,61.0,30.30,NNW,340,4.0,-999.0,73,-99.99,,,0.00,554,weatherlink.com 1.10,2013-01-24 15:23:00,
2013-01-24 10:38:00,69.8,61.0,30.30,North,9,2.0,-999.0,74,-99.99,,,0.00,213,weatherlink.com 1.10,2013-01-24 15:38:00,
2013-01-24 10:53:00,70.7,62.0,30.29,NNW,338,6.0,-999.0,73,-99.99,,,0.00,629,weatherlink.com 1.10,2013-01-24 15:53:00,
2013-01-24 11:08:00,71.7,62.0,30.28,North,350,5.0,-999.0,71,-99.99,,,0.00,652,weatherlink.com 1.10,2013-01-24 16:08:00,
2013-01-24 11:23:00,72.8,62.0,30.27,NNW,338,4.0,-999.0,70,-99.99,,,0.00,673,weatherlink.com 1.10,2013-01-24 16:23:00,
2013-01-24 11:38:00,73.6,62.0,30.27,North,355,2.0,-999.0,68,-99.99,,,0.00,686,weatherlink.com 1.10,2013-01-24 16:38:00,
2013-01-24 11:53:00,74.9,63.0,30.26,North,351,5.0,-999.0,66,-99.99,,,0.00,694,weatherlink.com 1.10,2013-01-24 16:53:00,
2013-01-24 12:08:00,74.9,62.0,30.25,North,349,1.0,-999.0,64,-99.99,,,0.00,693,weatherlink.com 1.10,2013-01-24 17:08:00,
2013-01-24 12:23:00,75.5,61.0,30.25,North,355,5.0,-999.0,60,-99.99,,,0.00,679,weatherlink.com 1.10,2013-01-24 17:23:00,
2013-01-24 12:38:00,76.3,60.0,30.25,NE,38,6.0,-999.0,58,-99.99,,,0.00,679,weatherlink.com 1.10,2013-01-24 17:38:00,
2013-01-24 12:53:00,76.4,60.0,30.23,NE,36,5.0,-999.0,57,-99.99,,,0.00,587,weatherlink.com 1.10,2013-01-24 17:53:00,
2013-01-24 13:08:00,76.4,61.0,30.23,NNE,19,10.0,-999.0,59,-99.99,,,0.00,109,weatherlink.com 1.10,2013-01-24 18:08:00,
2013-01-24 13:23:00,76.1,61.0,30.23,ENE,61,6.0,-999.0,60,-99.99,,,0.00,461,weatherlink.com 1.10,2013-01-24 18:23:00,
2013-01-24 13:38:00,76.3,61.0,30.22,NE,42,5.0,-999.0,59,-99.99,,,0.00,439,weatherlink.com 1.10,2013-01-24 18:38:00,
2013-01-24 13:53:00,75.5,61.0,30.22,NNE,33,2.0,-999.0,62,-99.99,,,0.00,313,weatherlink.com 1.10,2013-01-24 18:53:00,
2013-01-24 14:08:00,74.7,62.0,30.21,ENE,60,4.0,-999.0,64,-99.99,,,0.00,272,weatherlink.com 1.10,2013-01-24 19:08:00,
2013-01-24 14:23:00,73.7,62.0,30.21,ENE,58,4.0,-999.0,67,-99.99,,,0.00,209,weatherlink.com 1.10,2013-01-24 19:23:00,
2013-01-24 14:38:00,75.3,62.0,30.20,NNE,28,3.0,-999.0,63,-99.99,,,0.00,104,weatherlink.com 1.10,2013-01-24 19:38:00,
2013-01-24 14:53:00,74.7,63.0,30.20,ENE,62,4.0,-999.0,66,-99.99,,,0.00,77,weatherlink.com 1.10,2013-01-24 19:53:00,
2013-01-24 15:08:00,74.4,62.0,30.19,NNE,31,9.0,-999.0,65,-99.99,,,0.00,70,weatherlink.com 1.10,2013-01-24 20:08:00,
2013-01-24 15:23:00,76.0,62.0,30.19,NNE,26,8.0,-999.0,62,-99.99,,,0.00,65,weatherlink.com 1.10,2013-01-24 20:23:00,
2013-01-24 15:38:00,76.2,62.0,30.19,NNE,22,6.0,-999.0,61,-99.99,,,0.00,65,weatherlink.com 1.10,2013-01-24 20:38:00,
2013-01-24 15:53:00,75.7,62.0,30.20,NE,49,5.0,-999.0,63,-99.99,,,0.00,65,weatherlink.com 1.10,2013-01-24 20:53:00,
2013-01-24 16:08:00,73.4,62.0,30.20,NE,46,6.0,-999.0,68,-99.99,,,0.00,65,weatherlink.com 1.10,2013-01-24 21:08:00,
2013-01-24 16:23:00,73.8,63.0,30.20,North,5,6.0,-999.0,68,-99.99,,,0.00,62,weatherlink.com 1.10,2013-01-24 21:23:00,
2013-01-24 16:38:00,74.2,61.0,30.20,NE,55,3.0,-999.0,64,-99.99,,,0.00,60,weatherlink.com 1.10,2013-01-24 21:38:00,
2013-01-24 16:53:00,73.3,62.0,30.21,NE,53,6.0,-999.0,68,-99.99,,,0.00,58,weatherlink.com 1.10,2013-01-24 21:53:00,
2013-01-24 17:08:00,73.2,62.0,30.21,NE,42,4.0,-999.0,68,-99.99,,,0.00,47,weatherlink.com 1.10,2013-01-24 22:08:00,
2013-01-24 17:23:00,73.0,61.0,30.21,NE,46,4.0,-999.0,67,-99.99,,,0.00,39,weatherlink.com 1.10,2013-01-24 22:23:00,
2013-01-24 17:38:00,72.3,61.0,30.21,NNE,24,6.0,-999.0,67,-99.99,,,0.00,25,weatherlink.com 1.10,2013-01-24 22:38:00,
2013-01-24 17:53:00,71.5,60.0,30.22,NE,42,4.0,-999.0,68,-99.99,,,0.00,9,weatherlink.com 1.10,2013-01-24 22:53:00,
2013-01-24 18:08:00,70.7,60.0,30.23,NE,34,6.0,-999.0,70,-99.99,,,0.00,0,weatherlink.com 1.10,2013-01-24 23:08:00,
2013-01-24 18:23:00,70.2,60.0,30.23,NNE,30,4.0,-999.0,71,-99.99,,,0.00,0,weatherlink.com 1.10,2013-01-24 23:23:00,
2013-01-24 18:38:00,69.8,60.0,30.23,NNE,24,4.0,-999.0,72,-99.99,,,0.00,0,weatherlink.com 1.10,2013-01-24 23:38:00,
2013-01-24 18:53:00,69.5,61.0,30.23,NNE,24,4.0,-999.0,73,-99.99,,,0.00,0,weatherlink.com 1.10,2013-01-24 23:53:00,
2013-01-24 19:08:00,69.4,61.0,30.23,NNE,28,3.0,-999.0,74,-99.99,,,0.00,0,weatherlink.com 1.10,2013-01-25 00:08:00,
2013-01-24 19:23:00,69.3,61.0,30.24,NNE,32,4.0,-999.0,75,-99.99,,,0.00,0,weatherlink.com 1.10,2013-01-25 00:23:00,
2013-01-24 19:38:00,69.1,61.0,30.24,NNE,28,4.0,-999.0,76,-99.99,,,0.00,0,weatherlink.com 1.10,2013-01-25 00:38:00,
2013-01-24 19:53:00,68.9,61.0,30.24,NE,39,5.0,-999.0,76,-99.99,,,0.00,0,weatherlink.com 1.10,2013-01-25 00:53:00,
2013-01-24 20:08:00,68.7,61.0,30.23,NNE,25,8.0,-999.0,77,-99.99,,,0.00,0,weatherlink.com 1.10,2013-01-25 01:08:00,
2013-01-24 20:24:00,68.5,61.0,30.24,NNE,29,4.0,-999.0,77,-99.99,,,0.00,0,weatherlink.com 1.10,2013-01-25 01:24:00,
2013-01-24 20:39:00,68.4,61.0,30.23,NE,41,7.0,-999.0,77,-99.99,,,0.00,0,weatherlink.com 1.10,2013-01-25 01:39:00,
2013-01-24 20:54:00,68.3,60.0,30.23,NNE,25,4.0,-999.0,76,-99.99,,,0.00,0,weatherlink.com 1.10,2013-01-25 01:54:00,
2013-01-24 21:09:00,68.4,60.0,30.24,NNE,31,4.0,-999.0,74,-99.99,,,0.00,0,weatherlink.com 1.10,2013-01-25 02:09:00,
2013-01-24 21:24:00,68.7,60.0,30.24,NNE,26,9.0,-999.0,73,-99.99,,,0.00,0,weatherlink.com 1.10,2013-01-25 02:24:00,
2013-01-24 21:39:00,69.1,60.0,30.24,NNE,31,2.0,-999.0,73,-99.99,,,0.00,0,weatherlink.com 1.10,2013-01-25 02:39:00,
2013-01-24 21:54:00,69.4,60.0,30.24,NNE,27,5.0,-999.0,71,-99.99,,,0.00,0,weatherlink.com 1.10,2013-01-25 02:54:00,
2013-01-24 22:09:00,69.5,59.0,30.25,NNE,24,2.0,-999.0,70,-99.99,,,0.00,0,weatherlink.com 1.10,2013-01-25 03:09:00,
2013-01-24 22:24:00,69.6,60.0,30.25,NNE,24,3.0,-999.0,71,-99.99,,,0.00,0,weatherlink.com 1.10,2013-01-25 03:24:00,
2013-01-24 22:39:00,69.3,61.0,30.25,North,11,4.0,-999.0,76,-99.99,,,0.00,0,weatherlink.com 1.10,2013-01-25 03:39:00,
2013-01-24 22:54:00,68.1,61.0,30.26,North,350,5.0,-999.0,79,-99.99,,,0.00,0,weatherlink.com 1.10,2013-01-25 03:54:00,
2013-01-24 23:09:00,66.8,60.0,30.25,North,360,5.0,-999.0,80,-99.99,,,0.00,0,weatherlink.com 1.10,2013-01-25 04:09:00,
2013-01-24 23:24:00,66.5,60.0,30.25,NNE,16,9.0,-999.0,80,-99.99,,,0.00,0,weatherlink.com 1.10,2013-01-25 04:24:00,
2013-01-24 23:39:00,66.5,60.0,30.25,NNE,14,5.0,-999.0,79,-99.99,,,0.00,0,weatherlink.com 1.10,2013-01-25 04:39:00,
2013-01-24 23:54:00,66.6,60.0,30.25,NNE,14,7.0,-999.0,79,-99.99,,,0.00,0,weatherlink.com 1.10,2013-01-25 04:54:00,